Time;durP1;ratioP1;P1;durP2;ratioP2;P2;SDS_P1;SDS_P2;PMS_P1;PMS_P2;Temp;Humidity;BMP_temperature;BMP_pressure;BME280_temperature;BME280_humidity;BME280_pressure;Samples;Min_cycle;Max_cycle;Signal;HPM_P1;HPM_P2
2024/01/07 00:02:07;;;;;;;71.32;17.30;;;;;;;;;;5093869;28;20044;-41
2024/01/07 00:04:34;;;;;;;46.33;17.63;;;;;;;;;;5089526;28;20038;-39
2024/01/07 00:07:01;;;;;;;64.88;16.80;;;;;;;;;;5086802;28;20028;-46
2024/01/07 00:09:28;;;;;;;75.25;20.48;;;;;;;;;;5073568;28;20480;-41
2024/01/07 00:11:55;;;;;;;77.57;22.27;;;;;;;;;;5079440;28;20430;-41
2024/01/07 00:14:22;;;;;;;83.78;24.45;;;;;;;;;;5076586;28;20062;-40
2024/01/07 00:16:49;;;;;;;76.22;25.83;;;;;;;;;;5073844;28;20071;-41
2024/01/07 00:19:16;;;;;;;68.95;25.05;;;;;;;;;;5073566;28;20036;-40
2024/01/07 00:21:43;;;;;;;79.50;23.15;;;;;;;;;;5079427;28;20063;-40
2024/01/07 00:24:10;;;;;;;76.00;21.35;;;;;;;;;;5093919;28;20559;-40
2024/01/07 00:26:37;;;;;;;66.82;22.60;;;;;;;;;;5093415;28;20020;-41
2024/01/07 00:29:04;;;;;;;80.47;21.52;;;;;;;;;;5093910;28;20420;-41
2024/01/07 00:31:30;;;;;;;70.93;19.90;;;;;;;;;;5075534;28;20081;-40
2024/01/07 00:33:57;;;;;;;67.53;17.02;;;;;;;;;;5093671;28;20371;-40
2024/01/07 00:36:24;;;;;;;62.20;14.40;;;;;;;;;;5093388;28;20685;-40
2024/01/07 00:38:51;;;;;;;44.63;13.73;;;;;;;;;;5093027;28;20059;-40
2024/01/07 00:41:18;;;;;;;48.70;11.98;;;;;;;;;;5086069;28;20089;-40
2024/01/07 00:43:45;;;;;;;40.25;9.48;;;;;;;;;;5092644;28;20028;-41
2024/01/07 00:46:12;;;;;;;46.92;7.65;;;;;;;;;;5092418;28;20031;-41
2024/01/07 00:48:39;;;;;;;33.80;8.50;;;;;;;;;;5090972;28;20056;-39
2024/01/07 00:51:06;;;;;;;40.45;7.65;;;;;;;;;;5090430;28;20028;-40
2024/01/07 00:53:33;;;;;;;30.67;7.13;;;;;;;;;;5092462;28;20054;-40
2024/01/07 00:56:00;;;;;;;27.73;6.45;;;;;;;;;;5092773;28;20103;-40
2024/01/07 00:58:27;;;;;;;37.50;7.03;;;;;;;;;;5086220;28;20063;-40
2024/01/07 01:00:54;;;;;;;31.65;6.93;;;;;;;;;;5072968;28;20032;-41
2024/01/07 01:03:21;;;;;;;36.95;7.82;;;;;;;;;;5088307;28;20065;-40
2024/01/07 01:05:48;;;;;;;47.38;8.13;;;;;;;;;;5092540;28;20385;-40
2024/01/07 01:08:15;;;;;;;51.85;9.48;;;;;;;;;;5092054;28;20032;-40
2024/01/07 01:10:42;;;;;;;47.70;8.70;;;;;;;;;;5092304;28;20371;-40
2024/01/07 01:13:09;;;;;;;56.92;8.52;;;;;;;;;;5092171;28;20024;-40
2024/01/07 01:15:36;;;;;;;52.53;8.77;;;;;;;;;;5091584;28;20111;-40
2024/01/07 01:18:03;;;;;;;38.95;8.55;;;;;;;;;;5091984;28;20043;-41
2024/01/07 01:20:30;;;;;;;30.15;7.65;;;;;;;;;;5092771;28;20135;-40
2024/01/07 01:22:57;;;;;;;29.75;7.68;;;;;;;;;;5092671;28;20032;-40
2024/01/07 01:25:26;;;;;;;27.08;7.35;;;;;;;;;;5091937;28;20393;-42
2024/01/07 01:27:53;;;;;;;29.75;6.57;;;;;;;;;;5091640;28;20051;-40
2024/01/07 01:30:20;;;;;;;25.33;6.38;;;;;;;;;;5092034;28;20120;-40
2024/01/07 01:32:47;;;;;;;34.65;6.60;;;;;;;;;;5092259;28;20390;-41
2024/01/07 01:35:14;;;;;;;33.17;6.40;;;;;;;;;;5091605;28;20027;-40
2024/01/07 01:37:40;;;;;;;25.75;6.50;;;;;;;;;;5089171;28;20663;-40
2024/01/07 01:40:08;;;;;;;16.15;5.47;;;;;;;;;;5091679;28;20122;-40
2024/01/07 01:42:35;;;;;;;24.77;6.00;;;;;;;;;;5090403;28;20052;-41
2024/01/07 01:45:02;;;;;;;17.45;5.07;;;;;;;;;;5090889;28;20043;-40
2024/01/07 01:47:30;;;;;;;25.15;5.32;;;;;;;;;;5073045;28;20031;-40
2024/01/07 01:49:57;;;;;;;21.33;7.63;;;;;;;;;;5089127;28;20043;-40
2024/01/07 01:52:24;;;;;;;50.40;12.98;;;;;;;;;;5090204;28;20032;-40
2024/01/07 01:54:51;;;;;;;57.00;13.77;;;;;;;;;;5091033;28;20120;-40
2024/01/07 01:57:22;;;;;;;58.72;12.95;;;;;;;;;;5090918;28;20028;-41
2024/01/07 01:59:49;;;;;;;52.35;13.27;;;;;;;;;;5090649;28;20402;-40
2024/01/07 02:02:16;;;;;;;56.63;13.45;;;;;;;;;;5090690;28;20447;-40
2024/01/07 02:04:43;;;;;;;47.88;12.07;;;;;;;;;;5089482;28;20027;-40
2024/01/07 02:07:11;;;;;;;49.90;11.20;;;;;;;;;;5091100;28;20028;-39
2024/01/07 02:09:39;;;;;;;41.22;10.55;;;;;;;;;;5091279;28;20916;-40
2024/01/07 02:12:11;;;;;;;43.55;9.48;;;;;;;;;;5091135;28;20394;-40
2024/01/07 02:14:39;;;;;;;36.08;8.00;;;;;;;;;;5091167;28;20032;-40
2024/01/07 02:17:06;;;;;;;37.40;6.65;;;;;;;;;;5091108;28;20031;-40
2024/01/07 02:19:33;;;;;;;26.30;5.28;;;;;;;;;;5090501;28;20032;-40
2024/01/07 02:22:00;;;;;;;16.08;4.82;;;;;;;;;;5090103;28;20035;-42
2024/01/07 02:24:27;;;;;;;19.42;4.28;;;;;;;;;;5090913;28;20074;-40
2024/01/07 02:26:54;;;;;;;24.83;4.88;;;;;;;;;;5090561;28;20024;-40
2024/01/07 02:29:21;;;;;;;15.82;4.32;;;;;;;;;;5090449;28;20032;-39
2024/01/07 02:31:48;;;;;;;14.63;4.20;;;;;;;;;;5069218;28;20067;-40
2024/01/07 02:34:15;;;;;;;20.55;4.70;;;;;;;;;;5091533;28;20068;-40
2024/01/07 02:36:42;;;;;;;19.85;5.30;;;;;;;;;;5073323;28;20439;-39
2024/01/07 02:39:09;;;;;;;23.27;5.20;;;;;;;;;;5091603;28;20070;-40
2024/01/07 02:41:35;;;;;;;27.70;5.97;;;;;;;;;;5079727;28;20431;-44
2024/01/07 02:44:02;;;;;;;23.50;5.20;;;;;;;;;;5090767;28;20469;-44
2024/01/07 02:46:29;;;;;;;38.42;6.15;;;;;;;;;;5090778;28;20036;-44
2024/01/07 02:48:57;;;;;;;30.30;4.72;;;;;;;;;;5090148;28;20047;-43
2024/01/07 02:51:23;;;;;;;37.88;4.78;;;;;;;;;;5088993;28;20378;-42
2024/01/07 02:53:50;;;;;;;26.85;3.05;;;;;;;;;;5090135;28;20106;-42
2024/01/07 02:56:17;;;;;;;14.07;2.33;;;;;;;;;;5087636;28;20510;-42
2024/01/07 02:58:45;;;;;;;17.30;2.20;;;;;;;;;;5090074;28;20057;-42
2024/01/07 03:01:12;;;;;;;13.07;1.85;;;;;;;;;;5082715;28;20032;-42
2024/01/07 03:03:39;;;;;;;12.35;1.70;;;;;;;;;;5090504;28;20517;-43
2024/01/07 03:06:06;;;;;;;13.00;1.85;;;;;;;;;;5090587;28;20028;-42
2024/01/07 03:08:34;;;;;;;14.43;1.60;;;;;;;;;;5090724;28;20099;-43
2024/01/07 03:11:06;;;;;;;6.30;1.40;;;;;;;;;;5072266;28;20036;-42
2024/01/07 03:13:33;;;;;;;10.25;1.40;;;;;;;;;;5087965;28;20066;-42
2024/01/07 03:16:00;;;;;;;8.65;1.15;;;;;;;;;;5094084;28;20036;-43
2024/01/07 03:18:31;;;;;;;9.23;1.08;;;;;;;;;;5072905;28;20126;-43
2024/01/07 03:20:58;;;;;;;14.43;1.63;;;;;;;;;;5091220;28;20043;-43
2024/01/07 03:23:25;;;;;;;17.75;2.30;;;;;;;;;;5094390;28;20116;-42
2024/01/07 03:25:52;;;;;;;30.15;2.83;;;;;;;;;;5076099;28;20032;-43
2024/01/07 03:28:19;;;;;;;19.48;2.67;;;;;;;;;;5075949;28;20035;-43
2024/01/07 03:30:47;;;;;;;20.08;3.35;;;;;;;;;;5094026;28;20028;-42
2024/01/07 03:33:14;;;;;;;27.02;4.05;;;;;;;;;;5094180;28;20024;-42
2024/01/07 03:35:41;;;;;;;25.92;4.15;;;;;;;;;;5094505;28;20028;-42
2024/01/07 03:38:17;;;;;;;26.25;4.03;;;;;;;;;;5094809;28;20028;-42
2024/01/07 03:40:51;;;;;;;25.92;3.90;;;;;;;;;;5094775;28;20032;-42
2024/01/07 03:43:18;;;;;;;22.05;3.67;;;;;;;;;;5076157;28;20035;-42
2024/01/07 03:45:45;;;;;;;19.33;3.00;;;;;;;;;;5094476;28;20111;-42
2024/01/07 03:48:13;;;;;;;26.83;3.55;;;;;;;;;;5094482;28;20043;-43
2024/01/07 03:50:41;;;;;;;19.98;3.10;;;;;;;;;;5076375;28;20078;-42
2024/01/07 03:53:08;;;;;;;21.42;3.15;;;;;;;;;;5094400;28;20024;-42
2024/01/07 03:55:35;;;;;;;16.05;2.50;;;;;;;;;;5094381;28;20032;-43
2024/01/07 03:58:03;;;;;;;22.67;2.75;;;;;;;;;;5094501;28;20028;-42
2024/01/07 04:00:30;;;;;;;23.05;2.95;;;;;;;;;;5094370;28;20515;-43
2024/01/07 04:02:57;;;;;;;18.48;2.38;;;;;;;;;;5093801;28;20028;-43
2024/01/07 04:05:24;;;;;;;26.60;2.28;;;;;;;;;;5093708;28;20028;-44
2024/01/07 04:07:52;;;;;;;27.98;3.05;;;;;;;;;;5093942;28;20036;-43
2024/01/07 04:10:20;;;;;;;26.73;3.03;;;;;;;;;;5094242;28;20444;-43
2024/01/07 04:12:48;;;;;;;34.70;3.25;;;;;;;;;;5093981;28;20020;-42
2024/01/07 04:15:15;;;;;;;31.48;3.63;;;;;;;;;;5094055;28;20025;-42
2024/01/07 04:17:42;;;;;;;36.53;3.97;;;;;;;;;;5094138;28;20023;-43
2024/01/07 04:20:09;;;;;;;34.95;4.05;;;;;;;;;;5093817;28;20633;-42
2024/01/07 04:22:36;;;;;;;27.73;3.38;;;;;;;;;;5092764;28;20054;-42
2024/01/07 04:25:05;;;;;;;24.30;3.22;;;;;;;;;;5086914;28;20033;-42
2024/01/07 04:27:32;;;;;;;28.08;2.60;;;;;;;;;;5086722;28;20028;-42
2024/01/07 04:29:59;;;;;;;21.52;2.08;;;;;;;;;;5087867;28;20086;-42
2024/01/07 04:32:26;;;;;;;39.53;3.10;;;;;;;;;;5087344;28;20028;-42
2024/01/07 04:34:53;;;;;;;25.98;2.58;;;;;;;;;;5093247;28;20032;-42
2024/01/07 04:37:20;;;;;;;14.75;1.80;;;;;;;;;;5093041;28;20028;-42
2024/01/07 04:39:47;;;;;;;20.95;2.10;;;;;;;;;;5093579;28;20526;-42
2024/01/07 04:42:14;;;;;;;29.33;2.13;;;;;;;;;;5093511;28;20036;-42
2024/01/07 04:44:41;;;;;;;16.15;2.05;;;;;;;;;;5093628;28;20024;-42
2024/01/07 04:47:24;;;;;;;11.75;2.10;;;;;;;;;;5093672;28;20024;-42
2024/01/07 04:49:51;;;;;;;12.02;1.67;;;;;;;;;;5093301;28;20040;-42
2024/01/07 04:52:18;;;;;;;16.00;2.13;;;;;;;;;;5093295;28;20032;-42
2024/01/07 04:54:45;;;;;;;16.95;2.20;;;;;;;;;;5093351;28;20390;-42
2024/01/07 04:57:12;;;;;;;19.35;1.90;;;;;;;;;;5093428;28;20020;-42
2024/01/07 04:59:39;;;;;;;19.13;1.92;;;;;;;;;;5093303;28;20493;-42
2024/01/07 05:02:06;;;;;;;9.02;1.38;;;;;;;;;;5093298;28;20043;-42
2024/01/07 05:04:33;;;;;;;9.68;1.50;;;;;;;;;;5093207;28;20048;-43
2024/01/07 05:07:00;;;;;;;12.52;1.48;;;;;;;;;;5093126;28;20507;-42
2024/01/07 05:09:27;;;;;;;14.05;1.75;;;;;;;;;;5093218;28;20063;-42
2024/01/07 05:11:54;;;;;;;10.23;1.20;;;;;;;;;;5092970;28;20177;-42
2024/01/07 05:14:22;;;;;;;14.32;1.13;;;;;;;;;;5093009;28;20489;-42
2024/01/07 05:16:49;;;;;;;10.98;1.20;;;;;;;;;;5092751;28;20039;-42
2024/01/07 05:19:16;;;;;;;12.55;1.95;;;;;;;;;;5092978;28;20401;-42
2024/01/07 05:21:43;;;;;;;16.95;2.30;;;;;;;;;;5092967;28;20032;-42
2024/01/07 05:24:11;;;;;;;16.77;1.95;;;;;;;;;;5092767;28;20020;-42
2024/01/07 05:26:43;;;;;;;18.08;2.50;;;;;;;;;;5092770;28;20038;-42
2024/01/07 05:29:12;;;;;;;;;;;;;;;;;;5093281;28;20039;-42
2024/01/07 05:31:41;;;;;;;19.95;1.73;;;;;;;;;;5092761;28;19953;-42
2024/01/07 05:34:09;;;;;;;16.05;1.33;;;;;;;;;;5092532;28;20036;-42
2024/01/07 05:36:36;;;;;;;9.27;1.35;;;;;;;;;;5092474;28;20032;-43
2024/01/07 05:39:03;;;;;;;18.00;1.80;;;;;;;;;;5092555;28;20541;-42
2024/01/07 05:41:30;;;;;;;11.50;1.45;;;;;;;;;;5092414;28;20028;-42
2024/01/07 05:43:57;;;;;;;18.33;2.03;;;;;;;;;;5092372;28;20031;-43
2024/01/07 05:46:23;;;;;;;9.85;1.45;;;;;;;;;;5092469;28;20028;-42
2024/01/07 05:48:51;;;;;;;12.50;1.02;;;;;;;;;;5092212;28;20086;-42
2024/01/07 05:51:18;;;;;;;12.63;1.38;;;;;;;;;;5092441;28;20032;-42
2024/01/07 05:53:45;;;;;;;16.33;1.38;;;;;;;;;;5092026;28;20055;-43
2024/01/07 05:56:13;;;;;;;13.10;1.40;;;;;;;;;;5092233;28;20031;-42
2024/01/07 05:58:40;;;;;;;21.25;1.77;;;;;;;;;;5092272;28;20472;-42
2024/01/07 06:01:08;;;;;;;27.23;2.25;;;;;;;;;;5090642;28;20048;-42
2024/01/07 06:03:35;;;;;;;18.83;1.92;;;;;;;;;;5091992;28;20032;-42
2024/01/07 06:06:02;;;;;;;21.73;2.60;;;;;;;;;;5092189;28;20077;-42
2024/01/07 06:08:29;;;;;;;20.08;2.38;;;;;;;;;;5091868;28;20060;-42
2024/01/07 06:10:56;;;;;;;24.55;2.50;;;;;;;;;;5092158;28;20565;-42
2024/01/07 06:13:23;;;;;;;21.00;2.85;;;;;;;;;;5091770;28;20027;-42
2024/01/07 06:15:50;;;;;;;31.85;3.28;;;;;;;;;;5091945;28;20588;-42
2024/01/07 06:18:17;;;;;;;31.90;2.70;;;;;;;;;;5091930;28;20031;-42
2024/01/07 06:20:44;;;;;;;30.33;2.78;;;;;;;;;;5091927;28;20032;-42
2024/01/07 06:23:11;;;;;;;32.25;3.10;;;;;;;;;;5091864;28;20034;-42
2024/01/07 06:25:39;;;;;;;34.90;3.78;;;;;;;;;;5091584;28;20557;-42
2024/01/07 06:28:06;;;;;;;26.25;3.33;;;;;;;;;;5091698;28;20561;-42
2024/01/07 06:30:33;;;;;;;27.58;3.35;;;;;;;;;;5091916;28;20047;-43
2024/01/07 06:33:00;;;;;;;30.65;3.80;;;;;;;;;;5091473;28;20036;-42
2024/01/07 06:35:27;;;;;;;31.98;3.17;;;;;;;;;;5091646;28;20032;-42
2024/01/07 06:37:54;;;;;;;35.65;3.05;;;;;;;;;;5091697;28;20109;-42
2024/01/07 06:40:22;;;;;;;22.77;2.92;;;;;;;;;;5091679;28;20487;-42
2024/01/07 06:42:49;;;;;;;19.95;2.88;;;;;;;;;;5091410;28;20032;-42
2024/01/07 06:45:17;;;;;;;16.17;2.40;;;;;;;;;;5091598;28;20038;-42
2024/01/07 06:47:44;;;;;;;30.20;3.10;;;;;;;;;;5091327;28;20404;-42
2024/01/07 06:50:11;;;;;;;22.65;2.92;;;;;;;;;;5093191;28;20141;-42
2024/01/07 06:52:38;;;;;;;16.88;2.58;;;;;;;;;;5095555;28;20027;-42
2024/01/07 06:55:05;;;;;;;21.50;2.15;;;;;;;;;;5095839;28;20028;-43
2024/01/07 06:57:32;;;;;;;17.92;2.55;;;;;;;;;;5095696;28;20444;-42
2024/01/07 06:59:59;;;;;;;14.27;2.35;;;;;;;;;;5095623;28;20036;-42
2024/01/07 07:02:26;;;;;;;16.77;2.60;;;;;;;;;;5095599;28;20020;-42
2024/01/07 07:04:53;;;;;;;12.43;2.45;;;;;;;;;;5095644;28;20101;-43
2024/01/07 07:07:20;;;;;;;14.82;2.38;;;;;;;;;;5095559;28;20027;-42
2024/01/07 07:09:47;;;;;;;11.55;2.38;;;;;;;;;;5095466;28;20043;-42
2024/01/07 07:12:14;;;;;;;14.52;1.85;;;;;;;;;;5095408;28;20101;-42
2024/01/07 07:14:41;;;;;;;9.57;1.50;;;;;;;;;;5095350;28;20109;-42
2024/01/07 07:17:08;;;;;;;10.77;1.77;;;;;;;;;;5095261;28;20032;-42
2024/01/07 07:19:35;;;;;;;15.05;1.92;;;;;;;;;;5095240;28;20055;-42
2024/01/07 07:22:02;;;;;;;6.03;1.55;;;;;;;;;;5095037;28;20052;-42
2024/01/07 07:24:29;;;;;;;10.70;1.58;;;;;;;;;;5095221;28;20031;-42
2024/01/07 07:26:55;;;;;;;9.77;1.23;;;;;;;;;;5095239;28;20081;-43
2024/01/07 07:29:22;;;;;;;5.85;1.10;;;;;;;;;;5094967;28;20024;-42
2024/01/07 07:31:49;;;;;;;10.48;1.40;;;;;;;;;;5095055;28;20028;-42
2024/01/07 07:34:16;;;;;;;15.38;2.08;;;;;;;;;;5095077;28;20032;-42
2024/01/07 07:36:44;;;;;;;11.32;1.70;;;;;;;;;;5095031;28;20470;-42
2024/01/07 07:39:13;;;;;;;12.55;1.80;;;;;;;;;;5094886;28;20028;-42
2024/01/07 07:41:40;;;;;;;18.83;2.05;;;;;;;;;;5094632;28;20165;-42
2024/01/07 07:44:07;;;;;;;9.32;1.45;;;;;;;;;;5094956;28;20073;-42
2024/01/07 07:46:34;;;;;;;12.55;1.60;;;;;;;;;;5094720;28;20555;-42
2024/01/07 07:49:03;;;;;;;11.88;1.85;;;;;;;;;;5094664;28;20051;-43
2024/01/07 07:51:30;;;;;;;14.38;1.98;;;;;;;;;;5094835;28;20429;-42
2024/01/07 07:53:57;;;;;;;16.88;1.95;;;;;;;;;;5094595;28;20039;-42
2024/01/07 07:56:24;;;;;;;16.92;2.38;;;;;;;;;;5094548;28;20525;-42
2024/01/07 07:58:51;;;;;;;12.45;2.20;;;;;;;;;;5094525;28;20097;-42
2024/01/07 08:01:18;;;;;;;21.77;2.60;;;;;;;;;;5093190;28;20082;-42
2024/01/07 08:03:45;;;;;;;19.90;2.38;;;;;;;;;;5094343;28;20031;-42
2024/01/07 08:06:12;;;;;;;15.50;2.53;;;;;;;;;;5094362;28;20027;-42
2024/01/07 08:08:39;;;;;;;16.02;2.50;;;;;;;;;;5094457;28;20020;-42
2024/01/07 08:11:08;;;;;;;23.63;2.38;;;;;;;;;;5094290;28;20085;-42
2024/01/07 08:13:38;;;;;;;14.27;2.75;;;;;;;;;;5094126;28;20116;-42
2024/01/07 08:16:06;;;;;;;18.40;2.33;;;;;;;;;;5094185;28;20031;-42
2024/01/07 08:18:33;;;;;;;26.52;3.03;;;;;;;;;;5094036;28;20032;-42
2024/01/07 08:21:00;;;;;;;21.08;3.13;;;;;;;;;;5094127;28;20081;-42
2024/01/07 08:23:27;;;;;;;28.48;3.83;;;;;;;;;;5094127;28;20107;-42
2024/01/07 08:25:54;;;;;;;29.90;3.63;;;;;;;;;;5093831;28;20024;-42
2024/01/07 08:28:21;;;;;;;70.40;6.85;;;;;;;;;;5094082;28;20024;-42
2024/01/07 08:30:49;;;;;;;94.53;8.43;;;;;;;;;;5093982;28;20464;-42
2024/01/07 08:33:16;;;;;;;84.93;8.13;;;;;;;;;;5093680;28;20032;-42
2024/01/07 08:35:43;;;;;;;78.10;6.15;;;;;;;;;;5093904;28;20090;-42
2024/01/07 08:38:10;;;;;;;44.15;4.70;;;;;;;;;;5093823;28;20059;-42
2024/01/07 08:40:37;;;;;;;54.28;5.30;;;;;;;;;;5093884;28;20051;-42
2024/01/07 08:43:03;;;;;;;45.67;4.47;;;;;;;;;;5093714;28;20048;-42
2024/01/07 08:45:30;;;;;;;21.58;3.30;;;;;;;;;;5093657;28;20020;-42
2024/01/07 08:47:57;;;;;;;25.08;3.25;;;;;;;;;;5093370;28;20533;-42
2024/01/07 08:50:24;;;;;;;26.45;3.25;;;;;;;;;;5093614;28;20035;-42
2024/01/07 08:52:52;;;;;;;35.45;3.78;;;;;;;;;;5093402;28;20043;-42
2024/01/07 08:55:19;;;;;;;41.58;4.68;;;;;;;;;;5093330;28;20115;-43
2024/01/07 08:57:48;;;;;;;35.10;4.47;;;;;;;;;;5093476;28;20070;-42
2024/01/07 09:00:16;;;;;;;35.33;4.05;;;;;;;;;;5092888;28;20126;-42
2024/01/07 09:02:43;;;;;;;41.85;4.55;;;;;;;;;;5093049;28;20087;-43
2024/01/07 09:05:10;;;;;;;29.05;3.47;;;;;;;;;;5093221;28;20549;-42
2024/01/07 09:07:37;;;;;;;32.38;3.88;;;;;;;;;;5093432;28;20043;-42
2024/01/07 09:10:08;;;;;;;23.95;3.33;;;;;;;;;;5092978;28;20035;-42
2024/01/07 09:12:36;;;;;;;30.13;3.30;;;;;;;;;;5092873;28;20481;-42
2024/01/07 09:15:03;;;;;;;28.45;3.33;;;;;;;;;;5092915;28;20504;-43
2024/01/07 09:17:30;;;;;;;24.40;3.20;;;;;;;;;;5092541;28;20024;-43
2024/01/07 09:19:56;;;;;;;32.17;3.35;;;;;;;;;;5092998;28;20036;-42
2024/01/07 09:22:23;;;;;;;22.02;3.63;;;;;;;;;;5092626;28;20036;-42
2024/01/07 09:24:50;;;;;;;23.40;3.10;;;;;;;;;;5092550;28;20489;-43
2024/01/07 09:27:17;;;;;;;27.48;3.10;;;;;;;;;;5092374;28;20032;-43
2024/01/07 09:29:44;;;;;;;18.90;3.35;;;;;;;;;;5092129;28;20028;-46
2024/01/07 09:32:11;;;;;;;22.27;2.78;;;;;;;;;;5092220;28;20024;-43
2024/01/07 09:34:38;;;;;;;16.92;2.78;;;;;;;;;;5092555;28;20075;-45
2024/01/07 09:37:05;;;;;;;19.38;2.40;;;;;;;;;;5092438;28;20129;-44
2024/01/07 09:39:32;;;;;;;20.00;2.75;;;;;;;;;;5092634;28;20032;-43
2024/01/07 09:42:00;;;;;;;21.85;3.10;;;;;;;;;;5092492;28;20027;-44
2024/01/07 09:44:27;;;;;;;18.33;2.80;;;;;;;;;;5092508;28;20432;-44
2024/01/07 09:46:55;;;;;;;22.95;2.90;;;;;;;;;;5092469;28;20056;-44
2024/01/07 09:49:22;;;;;;;17.52;2.72;;;;;;;;;;5092271;28;20521;-44
2024/01/07 09:51:51;;;;;;;21.25;3.15;;;;;;;;;;5092151;28;20040;-43
2024/01/07 09:54:19;;;;;;;21.05;2.80;;;;;;;;;;5092360;28;20035;-46
2024/01/07 09:56:51;;;;;;;26.98;2.78;;;;;;;;;;5092252;28;20028;-43
2024/01/07 09:59:18;;;;;;;;;;;;;;;;;;5092711;28;20024;-44
2024/01/07 10:01:45;;;;;;;11.55;2.28;;;;;;;;;;5091959;28;19916;-44
2024/01/07 10:04:12;;;;;;;25.20;3.13;;;;;;;;;;5091324;28;20036;-44
2024/01/07 10:06:40;;;;;;;24.60;2.67;;;;;;;;;;5092044;28;20485;-43
2024/01/07 10:09:07;;;;;;;19.67;3.33;;;;;;;;;;5091985;28;20440;-44
2024/01/07 10:11:35;;;;;;;24.15;3.50;;;;;;;;;;5091971;28;20035;-43
2024/01/07 10:14:02;;;;;;;32.28;4.05;;;;;;;;;;5091935;28;20102;-43
2024/01/07 10:16:29;;;;;;;22.58;3.28;;;;;;;;;;5091707;28;20020;-43
2024/01/07 10:18:59;;;;;;;21.65;3.58;;;;;;;;;;5091904;28;20078;-43
2024/01/07 10:21:26;;;;;;;16.48;3.22;;;;;;;;;;5091812;28;20036;-46
2024/01/07 10:24:13;;;;;;;22.38;4.10;;;;;;;;;;5091620;28;20028;-43
2024/01/07 10:26:40;;;;;;;26.13;5.50;;;;;;;;;;5091773;28;20032;-44
2024/01/07 10:29:08;;;;;;;34.38;8.13;;;;;;;;;;5091740;28;20024;-43
2024/01/07 10:31:35;;;;;;;24.13;5.70;;;;;;;;;;5091752;28;20031;-44
2024/01/07 10:34:03;;;;;;;25.00;4.95;;;;;;;;;;5091881;28;20024;-44
2024/01/07 10:36:31;;;;;;;18.45;3.58;;;;;;;;;;5091816;28;20518;-44
2024/01/07 10:38:57;;;;;;;19.25;3.22;;;;;;;;;;5091700;28;20020;-44
2024/01/07 10:41:26;;;;;;;16.40;3.58;;;;;;;;;;5091530;28;20032;-44
2024/01/07 10:43:54;;;;;;;11.63;2.50;;;;;;;;;;5091742;28;20117;-44
2024/01/07 10:46:21;;;;;;;16.30;2.78;;;;;;;;;;5091829;28;20027;-44
2024/01/07 10:48:48;;;;;;;20.30;2.50;;;;;;;;;;5091423;28;20052;-44
2024/01/07 10:51:15;;;;;;;9.10;2.08;;;;;;;;;;5091429;28;20103;-44
2024/01/07 10:53:44;;;;;;;17.30;2.15;;;;;;;;;;5091486;28;20032;-43
2024/01/07 10:56:13;;;;;;;6.93;2.00;;;;;;;;;;5091604;28;20024;-44
2024/01/07 10:58:40;;;;;;;10.07;1.70;;;;;;;;;;5091471;28;20442;-46
2024/01/07 11:01:07;;;;;;;17.45;1.65;;;;;;;;;;5091494;28;20032;-43
2024/01/07 11:03:39;;;;;;;14.00;2.22;;;;;;;;;;5091382;28;20094;-43
2024/01/07 11:06:09;;;;;;;13.80;1.92;;;;;;;;;;5091454;28;20124;-44
2024/01/07 11:08:46;;;;;;;10.77;1.73;;;;;;;;;;5091483;28;20027;-43
2024/01/07 11:11:21;;;;;;;9.63;1.50;;;;;;;;;;5073249;28;20482;-48
2024/01/07 11:13:47;;;;;;;10.60;1.48;;;;;;;;;;5091428;28;20444;-44
2024/01/07 11:16:14;;;;;;;7.45;1.33;;;;;;;;;;5091421;28;20044;-44
2024/01/07 11:18:49;;;;;;;5.07;1.00;;;;;;;;;;5091421;28;20013;-44
2024/01/07 11:21:24;;;;;;;3.40;0.98;;;;;;;;;;5091101;28;20040;-44
2024/01/07 11:23:52;;;;;;;4.65;1.00;;;;;;;;;;5091132;28;20111;-45
2024/01/07 11:26:21;;;;;;;3.55;0.77;;;;;;;;;;5091205;28;20033;-46
2024/01/07 11:28:48;;;;;;;5.18;0.82;;;;;;;;;;5091327;28;20013;-43
2024/01/07 11:31:16;;;;;;;3.22;0.80;;;;;;;;;;5091035;28;20028;-44
2024/01/07 11:33:44;;;;;;;2.35;0.70;;;;;;;;;;5091154;28;20385;-44
2024/01/07 11:36:12;;;;;;;4.03;0.88;;;;;;;;;;5092761;28;20028;-43
2024/01/07 11:38:42;;;;;;;3.17;0.60;;;;;;;;;;5095106;28;20027;-44
2024/01/07 11:41:10;;;;;;;3.95;0.63;;;;;;;;;;5094903;28;20065;-44
2024/01/07 11:43:37;;;;;;;4.57;0.75;;;;;;;;;;5094946;28;20039;-44
2024/01/07 11:46:04;;;;;;;7.70;1.00;;;;;;;;;;5094877;28;20020;-45
2024/01/07 11:48:31;;;;;;;4.90;0.60;;;;;;;;;;5094552;28;20048;-43
2024/01/07 11:50:58;;;;;;;4.13;0.80;;;;;;;;;;5095002;28;20027;-46
2024/01/07 11:53:25;;;;;;;2.67;0.70;;;;;;;;;;5094709;28;20051;-43
2024/01/07 11:55:52;;;;;;;2.05;0.50;;;;;;;;;;5094710;28;20024;-44
2024/01/07 11:58:19;;;;;;;4.85;0.80;;;;;;;;;;5094675;28;20104;-44
2024/01/07 12:00:46;;;;;;;4.68;0.88;;;;;;;;;;5094514;28;20062;-43
2024/01/07 12:03:13;;;;;;;3.10;0.60;;;;;;;;;;5094519;28;20073;-44
2024/01/07 12:05:40;;;;;;;2.45;0.50;;;;;;;;;;5094408;28;20024;-44
2024/01/07 12:08:07;;;;;;;1.83;0.63;;;;;;;;;;5094275;28;20165;-43
2024/01/07 12:10:34;;;;;;;3.97;0.77;;;;;;;;;;5094149;28;20032;-44
2024/01/07 12:13:03;;;;;;;3.20;0.85;;;;;;;;;;5094171;28;20025;-44
2024/01/07 12:15:30;;;;;;;6.28;0.75;;;;;;;;;;5094182;28;20024;-44
2024/01/07 12:17:58;;;;;;;1.80;0.50;;;;;;;;;;5094170;28;20482;-45
2024/01/07 12:20:25;;;;;;;5.22;0.63;;;;;;;;;;5094053;28;20031;-44
2024/01/07 12:22:52;;;;;;;6.13;0.88;;;;;;;;;;5094030;28;20027;-45
2024/01/07 12:25:26;;;;;;;5.82;1.02;;;;;;;;;;5075830;28;20028;-43
2024/01/07 12:27:53;;;;;;;6.50;0.57;;;;;;;;;;5093949;28;20048;-44
2024/01/07 12:30:21;;;;;;;9.55;0.98;;;;;;;;;;5093868;28;20113;-44
2024/01/07 12:32:49;;;;;;;1.73;0.70;;;;;;;;;;5093811;28;20513;-44
2024/01/07 12:35:16;;;;;;;7.03;0.90;;;;;;;;;;5093930;28;20028;-45
2024/01/07 12:37:44;;;;;;;5.65;0.90;;;;;;;;;;5093889;28;20020;-44
2024/01/07 12:40:11;;;;;;;7.22;1.00;;;;;;;;;;5093595;28;20039;-43
2024/01/07 12:42:44;;;;;;;9.90;1.15;;;;;;;;;;5093594;28;20036;-44
2024/01/07 12:45:13;;;;;;;6.63;1.08;;;;;;;;;;5093659;28;20020;-45
2024/01/07 12:47:45;;;;;;;8.18;1.20;;;;;;;;;;5077616;28;20068;-43
2024/01/07 12:50:12;;;;;;;5.10;1.70;;;;;;;;;;5073373;28;20118;-44
2024/01/07 12:52:40;;;;;;;6.40;1.45;;;;;;;;;;5073288;28;20020;-44
2024/01/07 12:55:07;;;;;;;8.10;1.42;;;;;;;;;;5073137;28;20033;-44
2024/01/07 12:57:34;;;;;;;213.07;13.20;;;;;;;;;;5073319;28;20050;-44
2024/01/07 13:00:01;;;;;;;188.77;13.68;;;;;;;;;;5073096;28;20037;-43
2024/01/07 13:02:28;;;;;;;169.43;11.70;;;;;;;;;;5072988;28;20033;-43
2024/01/07 13:04:55;;;;;;;115.43;8.05;;;;;;;;;;5072884;28;20098;-41
2024/01/07 13:07:23;;;;;;;102.32;7.97;;;;;;;;;;5087792;28;20043;-41
2024/01/07 13:09:51;;;;;;;82.03;5.53;;;;;;;;;;5092594;28;20081;-41
2024/01/07 13:12:18;;;;;;;62.17;5.38;;;;;;;;;;5092946;28;20036;-41
2024/01/07 13:14:46;;;;;;;42.05;3.75;;;;;;;;;;5092847;28;20020;-42
2024/01/07 13:17:14;;;;;;;36.35;3.65;;;;;;;;;;5092365;28;20032;-42
2024/01/07 13:19:41;;;;;;;29.17;3.15;;;;;;;;;;5086974;28;20032;-42
2024/01/07 13:22:09;;;;;;;17.88;2.15;;;;;;;;;;5092315;28;20062;-42
2024/01/07 13:24:36;;;;;;;15.65;2.10;;;;;;;;;;5092847;28;20051;-42
2024/01/07 13:27:03;;;;;;;13.43;1.85;;;;;;;;;;5092861;28;20020;-42
2024/01/07 13:29:30;;;;;;;9.23;1.42;;;;;;;;;;5092107;28;20142;-41
2024/01/07 13:31:58;;;;;;;9.15;2.22;;;;;;;;;;5092361;28;20035;-40
2024/01/07 13:34:25;;;;;;;8.60;1.63;;;;;;;;;;5074195;28;20020;-44
2024/01/07 13:36:52;;;;;;;11.30;1.77;;;;;;;;;;5092523;28;20028;-42
2024/01/07 13:39:19;;;;;;;7.45;1.33;;;;;;;;;;5088315;28;20016;-41
2024/01/07 13:41:46;;;;;;;9.55;1.67;;;;;;;;;;5083144;28;20375;-41
2024/01/07 13:44:17;;;;;;;15.85;1.73;;;;;;;;;;5092064;28;20020;-41
2024/01/07 13:46:53;;;;;;;10.25;1.95;;;;;;;;;;5092149;28;20485;-41
2024/01/07 13:49:20;;;;;;;9.43;1.38;;;;;;;;;;5091975;28;20107;-41
2024/01/07 13:51:47;;;;;;;13.23;1.52;;;;;;;;;;5091920;28;20017;-41
2024/01/07 13:54:14;;;;;;;8.38;1.55;;;;;;;;;;5091837;28;20107;-41
2024/01/07 13:56:44;;;;;;;10.55;1.80;;;;;;;;;;5091950;28;20124;-41
2024/01/07 13:59:12;;;;;;;5.57;1.40;;;;;;;;;;5091995;28;20024;-41
2024/01/07 14:01:42;;;;;;;6.10;1.55;;;;;;;;;;5091591;28;20490;-41
2024/01/07 14:04:09;;;;;;;8.50;1.60;;;;;;;;;;5091882;28;20058;-41
2024/01/07 14:06:36;;;;;;;14.07;1.80;;;;;;;;;;5092021;28;20024;-42
2024/01/07 14:09:03;;;;;;;10.32;1.77;;;;;;;;;;5091828;28;20390;-41
2024/01/07 14:11:30;;;;;;;11.55;1.88;;;;;;;;;;5091696;28;20359;-41
2024/01/07 14:13:57;;;;;;;17.10;2.58;;;;;;;;;;5091789;28;20478;-41
2024/01/07 14:16:24;;;;;;;10.35;1.50;;;;;;;;;;5092032;28;20104;-42
2024/01/07 14:18:51;;;;;;;10.05;1.83;;;;;;;;;;5091727;28;20048;-41
2024/01/07 14:21:18;;;;;;;16.90;2.45;;;;;;;;;;5079749;28;20581;-38
2024/01/07 14:23:45;;;;;;;12.40;2.10;;;;;;;;;;5091091;28;20082;-38
2024/01/07 14:26:12;;;;;;;12.43;2.67;;;;;;;;;;5091325;28;20077;-38
2024/01/07 14:28:39;;;;;;;8.43;2.10;;;;;;;;;;5091275;28;20048;-38
2024/01/07 14:31:07;;;;;;;7.75;2.45;;;;;;;;;;5090620;28;20040;-38
2024/01/07 14:33:34;;;;;;;9.50;2.90;;;;;;;;;;5089486;28;20382;-38